Time;durP1;ratioP1;P1;durP2;ratioP2;P2;SDS_P1;SDS_P2;PMS_P1;PMS_P2;Temp;Humidity;BMP_temperature;BMP_pressure;BME280_temperature;BME280_humidity;BME280_pressure;Samples;Min_cycle;Max_cycle;Signal;HPM_P1;HPM_P2
2021/11/03 00:02:25;;;;;;;10.13;8.70;;;;;;;5.38;100.00;95364.09;5105439;28;20396;-68
2021/11/03 00:04:51;;;;;;;7.17;6.47;;;;;;;5.61;100.00;95359.84;5103821;28;20224;-68
2021/11/03 00:07:17;;;;;;;7.07;6.37;;;;;;;5.62;100.00;95354.44;5092983;28;20534;-67
2021/11/03 00:09:43;;;;;;;8.37;6.77;;;;;;;5.50;100.00;95358.06;5094157;28;20234;-67
2021/11/03 00:12:11;;;;;;;8.67;6.70;;;;;;;5.40;100.00;95348.28;5091884;28;20172;-68
2021/11/03 00:14:37;;;;;;;9.13;6.07;;;;;;;5.29;100.00;95362.88;5091171;28;20238;-68
2021/11/03 00:17:03;;;;;;;7.13;6.27;;;;;;;5.27;100.00;95358.91;5093028;28;20184;-68
2021/11/03 00:19:28;;;;;;;7.17;6.07;;;;;;;5.33;100.00;95358.78;5094245;28;20242;-68
2021/11/03 00:21:53;;;;;;;12.17;7.83;;;;;;;5.50;100.00;95364.06;5093129;28;20617;-68
2021/11/03 00:24:19;;;;;;;7.43;6.67;;;;;;;5.48;100.00;95362.72;5093056;28;20517;-68
2021/11/03 00:26:44;;;;;;;8.53;6.87;;;;;;;5.48;100.00;95366.09;5105628;28;20199;-68
2021/11/03 00:29:10;;;;;;;8.53;7.67;;;;;;;5.47;100.00;95367.09;5095762;28;20692;-68
2021/11/03 00:31:35;;;;;;;8.63;7.73;;;;;;;5.34;100.00;95369.97;5093251;28;20169;-68
2021/11/03 00:34:01;;;;;;;8.20;7.40;;;;;;;5.42;100.00;95367.81;5092480;28;20548;-67
2021/11/03 00:36:26;;;;;;;9.17;8.17;;;;;;;5.43;100.00;95368.59;5093048;28;20184;-68
2021/11/03 00:38:52;;;;;;;10.13;7.93;;;;;;;5.50;100.00;95358.06;5106318;28;20184;-68
2021/11/03 00:41:17;;;;;;;6.57;5.97;;;;;;;5.53;100.00;95353.19;5112327;28;20533;-68
2021/11/03 00:43:43;;;;;;;9.17;5.80;;;;;;;5.53;100.00;95353.19;5107867;28;20192;-68
2021/11/03 00:46:08;;;;;;;6.20;5.00;;;;;;;5.59;100.00;95349.69;5090918;28;20203;-68
2021/11/03 00:48:34;;;;;;;5.37;4.23;;;;;;;5.60;100.00;95345.28;5104178;28;20228;-68
2021/11/03 00:51:00;;;;;;;4.57;3.77;;;;;;;5.59;100.00;95343.69;5112203;28;20232;-68
2021/11/03 00:53:27;;;;;;;5.30;3.63;;;;;;;5.59;100.00;95330.69;5092234;28;20192;-68
2021/11/03 00:55:52;;;;;;;5.97;3.67;;;;;;;5.58;100.00;95329.13;5107305;28;20181;-68
2021/11/03 00:58:18;;;;;;;5.07;4.57;;;;;;;5.63;100.00;95330.00;5092797;28;20713;-68
2021/11/03 01:00:44;;;;;;;4.43;4.03;;;;;;;5.52;100.00;95330.84;5092553;28;20177;-67
2021/11/03 01:03:09;;;;;;;4.20;3.87;;;;;;;5.49;100.00;95328.72;5092381;28;20220;-68
2021/11/03 01:05:38;;;;;;;4.97;4.47;;;;;;;5.62;100.00;95325.06;5110227;28;20321;-68
2021/11/03 01:08:09;;;;;;;4.37;3.97;;;;;;;5.62;100.00;95322.47;5112126;28;20644;-68
2021/11/03 01:10:36;;;;;;;4.30;3.83;;;;;;;5.56;100.00;95325.97;5104345;28;20173;-68
2021/11/03 01:13:02;;;;;;;4.27;3.60;;;;;;;5.62;100.00;95323.25;5097680;28;20259;-68
2021/11/03 01:15:28;;;;;;;3.70;3.17;;;;;;;5.68;100.00;95311.94;5096163;28;20263;-68
2021/11/03 01:17:55;;;;;;;3.37;3.07;;;;;;;5.74;100.00;95310.97;5094853;28;20597;-68
2021/11/03 01:20:21;;;;;;;3.90;2.83;;;;;;;5.67;100.00;95305.16;5110379;28;20516;-68
2021/11/03 01:22:47;;;;;;;3.80;2.90;;;;;;;5.74;100.00;95303.19;5114435;28;20204;-68
2021/11/03 01:25:16;;;;;;;3.33;2.63;;;;;;;5.98;99.57;95295.31;5116134;28;20269;-68
2021/11/03 01:27:41;;;;;;;2.60;2.30;;;;;;;5.79;100.00;95294.72;5116062;28;20674;-68
2021/11/03 01:30:11;;;;;;;2.43;2.23;;;;;;;5.67;100.00;95291.38;5115896;28;20180;-67
2021/11/03 01:32:36;;;;;;;3.23;2.40;;;;;;;5.97;99.76;95293.72;5113987;28;20253;-68
2021/11/03 01:35:04;;;;;;;2.83;2.10;;;;;;;6.02;99.48;95293.84;5115869;28;20201;-68
2021/11/03 01:37:30;;;;;;;2.53;2.30;;;;;;;6.05;99.45;95291.53;5099974;28;20230;-67
2021/11/03 01:39:55;;;;;;;2.40;2.20;;;;;;;6.04;99.80;95302.97;5112790;28;20184;-67
2021/11/03 01:42:21;;;;;;;2.63;2.03;;;;;;;6.06;99.48;95298.34;5109123;28;20181;-68
2021/11/03 01:44:46;;;;;;;2.30;2.10;;;;;;;6.16;98.94;95301.09;5094326;28;20173;-68
2021/11/03 01:47:40;;;;;;;2.37;2.17;;;;;;;6.16;99.16;95306.28;5095507;28;20255;-68
2021/11/03 01:50:12;;;;;;;2.40;2.20;;;;;;;6.13;99.02;95306.75;5106910;28;20180;-68
2021/11/03 01:52:40;;;;;;;4.20;3.80;;;;;;;6.15;99.69;95304.72;5107695;28;20214;-68
2021/11/03 01:55:10;;;;;;;5.97;4.77;;;;;;;6.20;99.62;95304.00;5095480;28;20708;-68
2021/11/03 01:57:42;;;;;;;4.90;3.73;;;;;;;6.09;99.77;95291.84;5111638;28;20172;-68
2021/11/03 02:00:16;;;;;;;3.20;2.90;;;;;;;6.05;100.00;95296.75;5104412;28;20830;-68
2021/11/03 02:02:43;;;;;;;4.27;2.90;;;;;;;6.04;100.00;95286.56;5097217;28;20601;-68
2021/11/03 02:05:10;;;;;;;2.67;2.43;;;;;;;5.91;100.00;95285.03;5115288;28;20648;-68
2021/11/03 02:07:38;;;;;;;3.53;2.97;;;;;;;5.73;100.00;95280.03;5100048;28;20626;-68
2021/11/03 02:10:04;;;;;;;3.97;3.00;;;;;;;5.73;100.00;95278.22;5096416;28;20405;-68
2021/11/03 02:12:30;;;;;;;3.43;2.67;;;;;;;5.74;100.00;95276.44;5097078;28;20248;-68
2021/11/03 02:14:56;;;;;;;2.90;2.70;;;;;;;5.70;100.00;95268.28;5097176;28;20644;-68
2021/11/03 02:17:24;;;;;;;2.90;2.70;;;;;;;5.80;100.00;95252.84;5115416;28;20302;-68
2021/11/03 02:19:51;;;;;;;2.60;2.40;;;;;;;5.89;100.00;95252.53;5098567;28;20188;-68
2021/11/03 02:22:27;;;;;;;3.27;2.83;;;;;;;5.53;100.00;95253.66;5097644;28;20176;-68
2021/11/03 02:24:55;;;;;;;2.97;2.77;;;;;;;5.59;100.00;95248.34;5096434;28;20182;-68
2021/11/03 02:27:24;;;;;;;4.00;3.23;;;;;;;5.71;100.00;95237.88;5113165;28;20677;-67
2021/11/03 02:29:51;;;;;;;3.37;2.90;;;;;;;5.77;100.00;95253.34;5098899;28;20229;-68
2021/11/03 02:32:20;;;;;;;3.63;2.83;;;;;;;6.02;100.00;95252.22;5096524;28;20629;-68
2021/11/03 02:34:46;;;;;;;3.03;2.83;;;;;;;5.97;100.00;95255.50;5114206;28;20391;-68
2021/11/03 02:37:27;;;;;;;2.70;2.50;;;;;;;5.90;100.00;95247.09;5114097;28;20408;-68
2021/11/03 02:40:08;;;;;;;3.57;1.90;;;;;;;5.77;100.00;95248.16;5114987;28;20508;-68
2021/11/03 02:42:38;;;;;;;2.20;2.00;;;;;;;6.06;100.00;95255.94;5093464;28;20191;-68
2021/11/03 02:45:08;;;;;;;2.67;2.20;;;;;;;5.91;100.00;95255.69;5094594;28;20185;-68
2021/11/03 02:47:34;;;;;;;4.63;2.63;;;;;;;6.05;100.00;95251.75;5094263;28;20253;-68
2021/11/03 02:49:59;;;;;;;3.47;2.67;;;;;;;5.91;100.00;95242.69;5094732;28;20204;-68
2021/11/03 02:52:26;;;;;;;2.80;2.60;;;;;;;5.93;100.00;95246.63;5103019;28;20184;-68
2021/11/03 02:54:52;;;;;;;3.77;3.47;;;;;;;6.06;100.00;95235.13;5113616;28;20245;-67
2021/11/03 02:57:18;;;;;;;3.57;3.27;;;;;;;6.15;100.00;95236.28;5114169;28;20641;-68
2021/11/03 02:59:46;;;;;;;3.40;3.10;;;;;;;6.11;100.00;95236.00;5114128;28;20695;-68
2021/11/03 03:02:12;;;;;;;3.83;3.50;;;;;;;6.01;100.00;95237.66;5095470;28;20176;-68
2021/11/03 03:04:48;;;;;;;3.27;3.00;;;;;;;6.00;100.00;95236.84;5093902;28;20260;-68
2021/11/03 03:07:16;;;;;;;4.07;3.67;;;;;;;5.93;100.00;95232.81;5094438;28;20192;-68
2021/11/03 03:09:42;;;;;;;4.67;3.73;;;;;;;5.87;100.00;95231.94;5095365;28;20215;-68
2021/11/03 03:12:11;;;;;;;4.03;3.40;;;;;;;5.90;100.00;95235.91;5110427;28;20215;-68
2021/11/03 03:14:39;;;;;;;5.37;3.97;;;;;;;5.84;100.00;95235.78;5094171;28;20216;-68
2021/11/03 03:17:06;;;;;;;4.50;4.10;;;;;;;5.85;100.00;95226.94;5092442;28;20185;-68
2021/11/03 03:19:32;;;;;;;5.33;4.00;;;;;;;5.87;100.00;95216.34;5093871;28;20192;-68
2021/11/03 03:21:57;;;;;;;4.20;3.47;;;;;;;5.79;100.00;95212.31;5096500;28;20185;-68
2021/11/03 03:24:23;;;;;;;4.77;4.27;;;;;;;5.75;100.00;95213.00;5113841;28;20187;-68
2021/11/03 03:26:49;;;;;;;5.60;4.20;;;;;;;5.71;100.00;95204.09;5104034;28;20204;-67
2021/11/03 03:29:15;;;;;;;4.27;3.80;;;;;;;5.77;100.00;95206.56;5093521;28;20188;-67
2021/11/03 03:31:41;;;;;;;3.97;3.63;;;;;;;5.76;100.00;95212.75;5095079;28;20721;-68
2021/11/03 03:34:12;;;;;;;6.43;4.13;;;;;;;5.68;100.00;95213.16;5093963;28;20275;-68
2021/11/03 03:36:39;;;;;;;4.43;4.03;;;;;;;5.74;100.00;95214.03;5093552;28;20641;-68
2021/11/03 03:39:08;;;;;;;3.93;3.60;;;;;;;5.84;100.00;95206.41;5093801;28;20549;-68
2021/11/03 03:41:34;;;;;;;5.27;3.90;;;;;;;5.77;100.00;95216.94;5098166;28;20182;-68
2021/11/03 03:43:59;;;;;;;3.67;3.37;;;;;;;5.84;100.00;95212.41;5113059;28;20659;-68
2021/11/03 03:46:24;;;;;;;4.43;4.03;;;;;;;5.92;100.00;95205.25;5109221;28;20200;-68
2021/11/03 03:48:51;;;;;;;5.83;5.13;;;;;;;5.88;100.00;95206.75;5093263;28;20188;-68
2021/11/03 03:51:17;;;;;;;8.97;6.63;;;;;;;5.80;100.00;95205.28;5094271;28;20189;-68
2021/11/03 03:53:43;;;;;;;9.03;7.77;;;;;;;6.03;100.00;95204.38;5091883;28;20176;-68
2021/11/03 03:56:10;;;;;;;7.50;6.80;;;;;;;5.81;100.00;95205.06;5093301;28;20674;-68
2021/11/03 03:58:36;;;;;;;6.60;5.90;;;;;;;5.82;100.00;95209.22;5096611;28;20188;-68
2021/11/03 04:01:02;;;;;;;5.33;4.90;;;;;;;5.89;100.00;95211.72;5105824;28;20172;-68
2021/11/03 04:03:27;;;;;;;6.17;4.03;;;;;;;5.97;100.00;95205.31;5095462;28;20220;-68
2021/11/03 04:05:55;;;;;;;5.53;4.07;;;;;;;5.80;100.00;95215.66;5112699;28;20351;-68
2021/11/03 04:08:20;;;;;;;4.87;3.73;;;;;;;5.85;100.00;95215.78;5113354;28;20543;-68
2021/11/03 04:10:46;;;;;;;9.17;4.07;;;;;;;5.89;100.00;95208.31;5093763;28;20180;-68
2021/11/03 04:13:12;;;;;;;5.43;4.03;;;;;;;5.96;100.00;95207.16;5092980;28;20180;-68
2021/11/03 04:15:38;;;;;;;5.13;4.30;;;;;;;5.73;100.00;95204.66;5113275;28;20184;-68
2021/11/03 04:18:03;;;;;;;5.73;4.17;;;;;;;5.73;100.00;95207.25;5095101;28;20233;-68
2021/11/03 04:20:29;;;;;;;4.63;4.00;;;;;;;5.74;100.00;95204.41;5096350;28;20267;-68
2021/11/03 04:22:55;;;;;;;4.90;4.40;;;;;;;5.72;100.00;95197.88;5092943;28;20192;-68
2021/11/03 04:25:21;;;;;;;4.70;4.13;;;;;;;5.54;100.00;95200.69;5093023;28;20189;-68
2021/11/03 04:27:46;;;;;;;5.80;4.10;;;;;;;5.54;100.00;95200.69;5097037;28;20606;-68
2021/11/03 04:30:16;;;;;;;4.73;4.23;;;;;;;5.66;100.00;95202.22;5098294;28;20215;-68
2021/11/03 04:32:43;;;;;;;4.40;4.00;;;;;;;5.62;100.00;95202.91;5093338;28;20263;-68
2021/11/03 04:35:09;;;;;;;6.77;4.07;;;;;;;5.65;100.00;95200.63;5092859;28;20195;-68
2021/11/03 04:37:34;;;;;;;7.80;4.50;;;;;;;5.63;100.00;95197.47;5092720;28;20180;-68
2021/11/03 04:40:00;;;;;;;6.03;4.33;;;;;;;5.60;100.00;95189.34;5104998;28;20630;-68
2021/11/03 04:42:25;;;;;;;4.63;4.23;;;;;;;5.50;100.00;95189.97;5097657;28;20215;-68
2021/11/03 04:44:50;;;;;;;4.80;4.37;;;;;;;5.59;100.00;95198.97;5091417;28;20188;-68
2021/11/03 04:47:16;;;;;;;7.70;4.60;;;;;;;5.65;100.00;95181.63;5113002;28;20237;-68
2021/11/03 04:49:42;;;;;;;5.57;4.07;;;;;;;5.71;100.00;95181.50;5095368;28;20486;-68
2021/11/03 04:52:07;;;;;;;4.67;4.23;;;;;;;5.70;100.00;95181.72;5095235;28;20229;-68
2021/11/03 04:54:33;;;;;;;5.17;4.23;;;;;;;5.64;100.00;95175.66;5096609;28;20656;-68
2021/11/03 04:56:59;;;;;;;4.27;3.70;;;;;;;5.51;100.00;95172.59;5115313;28;20183;-68
2021/11/03 04:59:24;;;;;;;5.83;3.80;;;;;;;5.61;100.00;95170.94;5116750;28;20186;-68
2021/11/03 05:01:50;;;;;;;3.97;3.67;;;;;;;5.68;100.00;95166.38;5116807;28;20240;-68
2021/11/03 05:04:15;;;;;;;6.70;3.70;;;;;;;5.59;100.00;95159.19;5116259;28;20234;-68
2021/11/03 05:06:42;;;;;;;3.90;3.37;;;;;;;5.60;100.00;95145.97;5100652;28;20240;-68
2021/11/03 05:09:09;;;;;;;3.63;3.33;;;;;;;5.60;100.00;95150.38;5099014;28;20177;-68
2021/11/03 05:11:36;;;;;;;3.73;3.43;;;;;;;5.70;100.00;95153.91;5116916;28;20183;-68
2021/11/03 05:14:02;;;;;;;3.43;3.13;;;;;;;5.82;100.00;95148.66;5116577;28;20196;-66
2021/11/03 05:16:28;;;;;;;3.53;3.23;;;;;;;5.74;100.00;95136.81;5102615;28;20649;-67
2021/11/03 05:18:55;;;;;;;2.93;2.73;;;;;;;5.83;100.00;95130.22;5112735;28;20245;-68
2021/11/03 05:21:21;;;;;;;3.87;3.20;;;;;;;5.80;100.00;95133.28;5116323;28;20241;-67
2021/11/03 05:23:47;;;;;;;4.20;3.80;;;;;;;5.95;100.00;95114.56;5096953;28;20880;-67
2021/11/03 05:26:21;;;;;;;3.45;3.17;;;;;;;6.04;100.00;95117.53;5093320;28;20770;-67
2021/11/03 05:28:50;;;;;;;3.00;2.80;;;;;;;6.16;100.00;95115.63;5093263;28;20814;-68
2021/11/03 05:31:17;;;;;;;2.63;2.42;;;;;;;6.04;100.00;95117.53;5094612;28;20451;-68
2021/11/03 05:33:42;;;;;;;2.47;2.20;;;;;;;6.24;100.00;95113.38;5095325;28;20421;-68
2021/11/03 05:36:10;;;;;;;2.30;2.20;;;;;;;6.26;100.00;95121.75;5103179;28;20462;-68
2021/11/03 05:38:35;;;;;;;3.33;2.38;;;;;;;6.29;100.00;95117.09;5114735;28;20399;-68
2021/11/03 05:41:01;;;;;;;2.50;2.30;;;;;;;6.65;98.26;95111.28;5115058;28;20392;-68
2021/11/03 05:43:26;;;;;;;2.87;2.50;;;;;;;6.53;98.59;95103.59;5097399;28;20389;-68
2021/11/03 05:45:52;;;;;;;2.53;2.35;;;;;;;6.59;97.22;95109.66;5108712;28;20793;-68
2021/11/03 05:48:18;;;;;;;3.00;2.40;;;;;;;6.64;97.54;95107.91;5094859;28;20509;-68
2021/11/03 05:50:43;;;;;;;2.25;1.85;;;;;;;6.60;97.38;95101.63;5094766;28;20795;-68
2021/11/03 05:53:09;;;;;;;2.37;2.17;;;;;;;6.54;97.31;95094.00;5111005;28;20439;-68
2021/11/03 05:55:36;;;;;;;2.33;2.13;;;;;;;6.64;97.45;95089.69;5095167;28;20886;-67
2021/11/03 05:58:02;;;;;;;4.00;3.60;;;;;;;6.59;98.12;95092.22;5094373;28;20401;-68
2021/11/03 06:00:31;;;;;;;5.82;3.97;;;;;;;6.48;99.12;95087.94;5094444;28;20399;-68
2021/11/03 06:02:57;;;;;;;4.20;3.80;;;;;;;6.49;98.75;95086.13;5092071;28;20398;-68
2021/11/03 06:05:23;;;;;;;3.70;3.30;;;;;;;6.62;98.02;95075.34;5094535;28;20441;-68
2021/11/03 06:07:49;;;;;;;3.92;3.10;;;;;;;6.61;97.64;95074.56;5093035;28;20386;-68
2021/11/03 06:10:17;;;;;;;3.35;2.70;;;;;;;6.66;96.67;95077.22;5099306;28;20396;-69
2021/11/03 06:12:43;;;;;;;4.10;2.85;;;;;;;6.60;96.42;95067.78;5112529;28;20399;-69
2021/11/03 06:15:09;;;;;;;3.97;2.80;;;;;;;6.54;97.05;95067.97;5113571;28;20392;-68
2021/11/03 06:17:34;;;;;;;3.53;3.00;;;;;;;6.55;96.93;95070.31;5112188;28;20395;-69
2021/11/03 06:20:00;;;;;;;2.60;2.40;;;;;;;6.65;96.10;95065.22;5113992;28;20896;-69
2021/11/03 06:22:25;;;;;;;2.57;2.37;;;;;;;6.64;95.58;95070.66;5103584;28;20398;-68
2021/11/03 06:24:50;;;;;;;3.33;2.50;;;;;;;6.64;95.00;95071.47;5094025;28;20414;-69
2021/11/03 06:27:16;;;;;;;2.20;2.00;;;;;;;6.73;95.28;95068.44;5093876;28;20419;-69
2021/11/03 06:29:41;;;;;;;2.00;1.90;;;;;;;6.76;93.11;95067.94;5113656;28;20384;-68
2021/11/03 06:32:07;;;;;;;2.90;2.20;;;;;;;6.78;93.85;95071.09;5095956;28;20397;-69
2021/11/03 06:34:32;;;;;;;2.23;2.00;;;;;;;6.76;93.48;95063.53;5113934;28;20391;-69
2021/11/03 06:36:59;;;;;;;2.50;2.00;;;;;;;6.79;93.80;95063.03;5102462;28;20490;-69
2021/11/03 06:39:24;;;;;;;2.50;2.08;;;;;;;6.80;94.88;95061.22;5113865;28;20388;-68
2021/11/03 06:41:50;;;;;;;2.50;2.00;;;;;;;6.78;94.42;95063.28;5095595;28;20441;-69
2021/11/03 06:44:16;;;;;;;2.20;2.00;;;;;;;6.75;94.06;95069.75;5113000;28;20376;-70
2021/11/03 06:46:42;;;;;;;2.23;2.03;;;;;;;6.86;93.92;95081.84;5098511;28;20913;-70
2021/11/03 06:49:07;;;;;;;2.40;2.20;;;;;;;7.03;93.30;95079.94;5111433;28;20416;-69
2021/11/03 06:51:33;;;;;;;2.60;2.30;;;;;;;7.28;92.14;95071.56;5111574;28;20819;-69
2021/11/03 06:54:00;;;;;;;4.22;2.90;;;;;;;7.31;92.08;95071.06;5100324;28;20435;-69
2021/11/03 06:56:26;;;;;;;2.13;2.03;;;;;;;7.15;89.74;95064.16;5102640;28;20398;-69
2021/11/03 06:58:51;;;;;;;1.63;1.52;;;;;;;7.06;89.46;95066.44;5108984;28;20791;-69
2021/11/03 07:01:16;;;;;;;1.80;1.70;;;;;;;7.10;89.06;95070.13;5101850;28;20384;-69
2021/11/03 07:03:43;;;;;;;1.83;1.73;;;;;;;7.06;89.09;95081.28;5093355;28;20811;-69
2021/11/03 07:06:09;;;;;;;1.80;1.70;;;;;;;7.13;88.48;95087.09;5106114;28;20414;-69
2021/11/03 07:08:34;;;;;;;1.67;1.47;;;;;;;7.37;86.07;95079.72;5092837;28;20438;-69
2021/11/03 07:11:00;;;;;;;1.27;1.27;;;;;;;7.44;85.22;95078.50;5106126;28;20551;-69
2021/11/03 07:13:28;;;;;;;1.48;1.20;;;;;;;7.46;84.19;95079.03;5094956;28;20476;-68
2021/11/03 07:15:54;;;;;;;1.40;1.30;;;;;;;7.58;84.19;95075.47;5091423;28;20925;-69
2021/11/03 07:18:21;;;;;;;1.50;1.00;;;;;;;7.62;85.72;95086.97;5092742;28;20405;-71
2021/11/03 07:20:47;;;;;;;1.77;1.20;;;;;;;7.68;84.71;95091.97;5092820;28;20870;-70
2021/11/03 07:23:16;;;;;;;6.23;1.30;;;;;;;7.73;84.35;95086.00;5092748;28;20381;-68
2021/11/03 07:25:43;;;;;;;1.40;1.30;;;;;;;7.89;83.69;95078.03;5110834;28;20748;-69
2021/11/03 07:28:10;;;;;;;2.28;1.98;;;;;;;7.69;83.84;95069.28;5112978;28;20399;-68
2021/11/03 07:30:37;;;;;;;1.70;1.60;;;;;;;7.65;83.58;95066.38;5092634;28;20393;-65
2021/11/03 07:33:04;;;;;;;1.73;1.63;;;;;;;7.67;84.21;95073.97;5090957;28;20401;-64
2021/11/03 07:35:29;;;;;;;2.17;1.38;;;;;;;8.61;100.00;95076.59;5097261;28;20895;-62
2021/11/03 07:37:56;;;;;;;1.33;1.10;;;;;;;9.56;78.29;95088.28;5092725;28;20468;-64
2021/11/03 07:40:28;;;;;;;2.73;1.30;;;;;;;8.93;79.33;95089.47;5093851;28;20644;-65
2021/11/03 07:42:58;;;;;;;1.27;1.27;;;;;;;8.37;80.04;95091.09;5093886;28;20177;-65
2021/11/03 07:45:26;;;;;;;2.30;1.33;;;;;;;7.79;82.57;95092.84;5110068;28;20186;-65
2021/11/03 07:47:51;;;;;;;1.20;1.10;;;;;;;7.76;82.49;95088.88;5113100;28;20198;-64
2021/11/03 07:50:21;;;;;;;1.50;1.40;;;;;;;7.66;81.54;95069.78;5107938;28;20649;-64
2021/11/03 07:52:47;;;;;;;1.20;1.20;;;;;;;7.47;82.98;95054.50;5093449;28;20603;-63
2021/11/03 07:55:13;;;;;;;2.07;1.60;;;;;;;7.32;83.96;95057.00;5107664;28;20176;-63
2021/11/03 07:57:38;;;;;;;1.87;1.47;;;;;;;7.28;85.00;95081.22;5112849;28;20179;-64
2021/11/03 08:00:16;;;;;;;1.20;1.17;;;;;;;7.38;85.12;95070.88;5097427;28;20640;-64
2021/11/03 08:02:41;;;;;;;1.47;1.37;;;;;;;7.37;84.01;95056.25;5094179;28;20191;-63
2021/11/03 08:05:07;;;;;;;1.50;1.40;;;;;;;7.50;83.95;95042.81;5108828;28;20191;-63
2021/11/03 08:07:32;;;;;;;1.30;1.30;;;;;;;7.52;83.00;95041.53;5111126;28;20211;-64
2021/11/03 08:09:58;;;;;;;1.47;1.30;;;;;;;7.60;82.51;95040.28;5097849;28;20213;-64
2021/11/03 08:12:23;;;;;;;1.40;1.30;;;;;;;7.73;81.36;95042.47;5113320;28;20516;-64
2021/11/03 08:14:48;;;;;;;1.20;1.20;;;;;;;7.72;81.30;95027.06;5113535;28;20523;-64
2021/11/03 08:17:16;;;;;;;1.70;1.50;;;;;;;7.73;81.16;95021.59;5096311;28;20192;-64
2021/11/03 08:19:53;;;;;;;1.50;1.30;;;;;;;7.70;80.94;95024.69;5107492;28;20180;-63
2021/11/03 08:22:23;;;;;;;2.20;1.70;;;;;;;7.83;80.72;95024.25;5093275;28;20172;-64
2021/11/03 08:24:51;;;;;;;2.77;1.50;;;;;;;7.80;81.75;95026.59;5099755;28;20184;-65
2021/11/03 08:27:17;;;;;;;1.60;1.50;;;;;;;7.87;81.79;95030.53;5093965;28;20660;-65
2021/11/03 08:29:44;;;;;;;1.43;1.33;;;;;;;8.11;82.25;95028.31;5112500;28;20672;-64
2021/11/03 08:32:17;;;;;;;1.23;1.13;;;;;;;8.22;81.29;95032.56;5112753;28;20190;-64
2021/11/03 08:34:43;;;;;;;1.20;1.07;;;;;;;8.30;79.47;95037.28;5107802;28;20255;-65
2021/11/03 08:37:14;;;;;;;0.90;0.90;;;;;;;8.49;78.55;95034.25;5090672;28;20200;-66
2021/11/03 08:39:42;;;;;;;1.33;1.23;;;;;;;8.41;77.13;95032.13;5094313;28;20192;-65
2021/11/03 08:42:08;;;;;;;0.90;0.90;;;;;;;8.36;76.18;95029.50;5094798;28;20184;-64
2021/11/03 08:44:35;;;;;;;0.73;0.73;;;;;;;8.43;75.85;95038.66;5107722;28;20183;-65
2021/11/03 08:47:04;;;;;;;1.93;0.80;;;;;;;8.41;76.30;95029.53;5092740;28;20652;-65
2021/11/03 08:49:31;;;;;;;0.97;0.90;;;;;;;8.57;75.45;95034.53;5108805;28;20182;-65
2021/11/03 08:51:57;;;;;;;0.80;0.80;;;;;;;8.46;74.82;95047.81;5108748;28;20221;-65
2021/11/03 08:54:23;;;;;;;0.90;0.90;;;;;;;8.67;74.99;95049.44;5112491;28;20184;-65
2021/11/03 08:56:48;;;;;;;1.63;0.77;;;;;;;8.72;74.28;95046.84;5112634;28;20194;-65
2021/11/03 08:59:14;;;;;;;0.80;0.80;;;;;;;8.70;73.54;95054.94;5099722;28;20196;-65
2021/11/03 09:01:40;;;;;;;1.00;1.00;;;;;;;8.75;74.30;95059.38;5107353;28;20633;-65
2021/11/03 09:04:06;;;;;;;0.90;0.90;;;;;;;8.98;72.93;95050.28;5111979;28;20228;-66
2021/11/03 09:06:32;;;;;;;0.80;0.80;;;;;;;8.99;72.98;95057.09;5094387;28;20204;-66
2021/11/03 09:08:58;;;;;;;0.80;0.80;;;;;;;8.83;73.71;95043.22;5112284;28;20221;-67
2021/11/03 09:11:23;;;;;;;0.80;0.80;;;;;;;8.79;73.22;95046.63;5091161;28;20184;-66
2021/11/03 09:13:50;;;;;;;0.97;0.97;;;;;;;8.97;72.83;95046.91;5097077;28;20180;-66
2021/11/03 09:16:16;;;;;;;0.90;0.90;;;;;;;8.94;73.10;95051.88;5111135;28;20266;-66
2021/11/03 09:18:42;;;;;;;1.00;1.00;;;;;;;8.84;72.62;95044.00;5094575;28;20200;-66
2021/11/03 09:21:09;;;;;;;0.90;0.90;;;;;;;9.05;71.89;95040.38;5094229;28;20223;-66
2021/11/03 09:23:35;;;;;;;1.00;0.90;;;;;;;9.35;71.52;95029.19;5092281;28;20187;-67
2021/11/03 09:26:02;;;;;;;0.83;0.80;;;;;;;9.31;71.58;95030.72;5092227;28;20242;-66
2021/11/03 09:28:30;;;;;;;0.83;0.83;;;;;;;9.67;70.68;95032.28;5092146;28;20180;-66
2021/11/03 09:30:56;;;;;;;0.80;0.80;;;;;;;9.46;70.61;95036.75;5092998;28;20196;-66
2021/11/03 09:33:23;;;;;;;1.63;1.17;;;;;;;9.58;71.92;95042.47;5094683;28;20546;-67
2021/11/03 09:35:50;;;;;;;1.00;1.00;;;;;;;9.54;70.72;95036.22;5096296;28;20192;-66
2021/11/03 09:38:21;;;;;;;1.40;1.30;;;;;;;9.38;71.61;95045.13;5096263;28;20520;-66
2021/11/03 09:40:59;;;;;;;0.83;0.83;;;;;;;9.32;71.60;95040.94;5095731;28;20187;-67
2021/11/03 09:43:38;;;;;;;1.00;1.00;;;;;;;9.78;71.13;95041.69;5110949;28;20620;-64
2021/11/03 09:46:19;;;;;;;1.27;0.90;;;;;;;9.61;70.40;95046.41;5116476;28;20253;-66
2021/11/03 09:48:49;;;;;;;0.77;0.77;;;;;;;9.47;71.10;95055.84;5108976;28;20172;-68
2021/11/03 09:51:18;;;;;;;0.80;0.80;;;;;;;9.38;70.44;95055.56;5115865;28;20180;-66
2021/11/03 09:54:05;;;;;;;1.30;1.00;;;;;;;9.51;70.96;95054.28;5097206;28;20569;-66
2021/11/03 09:56:38;;;;;;;1.00;0.87;;;;;;;9.66;69.99;95054.25;5095564;28;20543;-64
2021/11/03 09:59:22;;;;;;;1.00;1.00;;;;;;;9.74;69.98;95061.59;5101802;28;20199;-65
2021/11/03 10:01:57;;;;;;;1.27;1.17;;;;;;;9.91;68.55;95053.47;5102095;28;20206;-64
2021/11/03 10:04:57;;;;;;;0.90;0.90;;;;;;;9.68;70.31;95054.78;5095524;28;20771;-64
2021/11/03 10:07:49;;;;;;;1.10;1.00;;;;;;;9.54;70.68;95043.28;5094251;28;20193;-63
2021/11/03 10:10:28;;;;;;;1.00;1.00;;;;;;;9.86;70.33;95038.53;5094932;28;20206;-64
2021/11/03 10:12:54;;;;;;;1.73;1.10;;;;;;;10.03;69.66;95043.47;5092675;28;20474;-64
2021/11/03 10:15:22;;;;;;;1.23;1.00;;;;;;;10.17;68.61;95051.59;5094453;28;20229;-64
2021/11/03 10:18:12;;;;;;;1.00;1.00;;;;;;;10.07;68.89;95055.00;5095289;28;20255;-65
2021/11/03 10:20:43;;;;;;;0.93;0.80;;;;;;;10.00;69.18;95063.13;5091430;28;20316;-64
2021/11/03 10:23:24;;;;;;;0.93;0.80;;;;;;;10.11;69.52;95065.72;5100185;28;20169;-64
2021/11/03 10:26:06;;;;;;;1.63;1.20;;;;;;;10.24;68.81;95054.72;5108007;28;20227;-65
2021/11/03 10:28:49;;;;;;;1.00;0.90;;;;;;;10.21;69.13;95063.09;5114231;28;20210;-66
2021/11/03 10:31:23;;;;;;;0.80;0.80;;;;;;;10.27;68.68;95064.66;5099087;28;20617;-65
2021/11/03 10:33:59;;;;;;;0.80;0.80;;;;;;;10.34;67.96;95075.63;5078619;28;20202;-66
2021/11/03 10:36:36;;;;;;;2.40;1.23;;;;;;;10.05;68.42;95070.16;5093638;28;20652;-65
2021/11/03 10:39:11;;;;;;;1.80;1.13;;;;;;;10.02;68.73;95060.25;5107716;28;20221;-66
2021/11/03 10:41:37;;;;;;;1.30;1.20;;;;;;;10.22;69.70;95069.91;5113629;28;20176;-65
2021/11/03 10:44:08;;;;;;;1.50;1.27;;;;;;;10.13;69.92;95058.38;5111152;28;20588;-65
2021/11/03 10:47:11;;;;;;;1.50;1.30;;;;;;;9.95;70.07;95062.34;5114948;28;20231;-65
2021/11/03 10:49:47;;;;;;;0.93;0.93;;;;;;;10.40;68.32;95064.09;5092978;28;20317;-66
2021/11/03 10:52:19;;;;;;;1.90;0.70;;;;;;;10.73;67.76;95076.53;5094829;28;20531;-65
2021/11/03 10:55:14;;;;;;;2.20;0.93;;;;;;;11.04;67.88;95089.47;5111427;28;20172;-65
2021/11/03 10:57:46;;;;;;;1.60;1.50;;;;;;;11.06;69.12;95090.00;5092184;28;20262;-66
2021/11/03 11:00:31;;;;;;;2.27;1.30;;;;;;;10.76;71.49;95096.16;5094969;28;20177;-66
2021/11/03 11:03:05;;;;;;;2.17;1.40;;;;;;;10.97;71.42;95092.41;5092811;28;20271;-66
2021/11/03 11:05:35;;;;;;;1.47;1.37;;;;;;;11.04;70.76;95097.34;5094261;28;20184;-66
2021/11/03 11:08:15;;;;;;;3.10;1.40;;;;;;;11.02;70.53;95088.97;5096192;28;20267;-66
2021/11/03 11:10:45;;;;;;;1.60;1.50;;;;;;;10.82;72.12;95093.25;5096751;28;20285;-66
2021/11/03 11:13:31;;;;;;;1.50;1.40;;;;;;;10.75;73.50;95092.00;5094303;28;20597;-65
2021/11/03 11:16:08;;;;;;;1.77;1.40;;;;;;;10.64;73.60;95095.72;5092825;28;20180;-65
2021/11/03 11:18:41;;;;;;;2.27;1.70;;;;;;;10.52;74.30;95095.22;5095188;28;20200;-64
2021/11/03 11:21:20;;;;;;;2.07;1.90;;;;;;;10.87;72.18;95095.06;5093530;28;20268;-65
2021/11/03 11:23:55;;;;;;;1.40;1.40;;;;;;;10.70;71.38;95090.16;5094294;28;20179;-66
2021/11/03 11:26:38;;;;;;;1.80;1.53;;;;;;;10.59;71.75;95100.97;5104784;28;20198;-68
2021/11/03 11:29:27;;;;;;;1.90;1.33;;;;;;;10.55;71.68;95102.53;5082890;28;20238;-66
2021/11/03 11:32:03;;;;;;;1.50;1.40;;;;;;;10.56;72.90;95102.28;5091576;28;20257;-66
2021/11/03 11:34:50;;;;;;;1.70;1.60;;;;;;;10.55;72.71;95099.91;5094234;28;20222;-66
2021/11/03 11:37:44;;;;;;;1.70;1.60;;;;;;;10.91;71.78;95105.81;5100014;28;20218;-66
2021/11/03 11:40:27;;;;;;;2.07;1.53;;;;;;;10.69;72.54;95096.47;5097369;28;20623;-66
2021/11/03 11:43:13;;;;;;;1.60;1.50;;;;;;;10.44;72.37;95086.06;5104792;28;20284;-66
2021/11/03 11:45:39;;;;;;;1.80;1.70;;;;;;;9.94;74.18;95074.63;5111012;28;20542;-65